createdAt,value
2022-10-22T00:02:20.596Z,22.61
2022-10-22T00:04:48.645Z,22.62
2022-10-22T00:07:18.769Z,22.60
2022-10-22T00:09:45.462Z,22.58
2022-10-22T00:12:12.765Z,22.57
2022-10-22T00:14:40.686Z,22.57
2022-10-22T00:17:10.548Z,22.55
2022-10-22T00:19:38.566Z,22.55
2022-10-22T00:22:07.783Z,22.55
2022-10-22T00:24:35.755Z,22.53
2022-10-22T00:27:02.721Z,22.53
2022-10-22T00:29:29.636Z,22.52
2022-10-22T00:34:28.172Z,22.52
2022-10-22T00:36:54.902Z,22.52
2022-10-22T00:39:23.951Z,22.54
2022-10-22T00:41:52.347Z,22.50
2022-10-22T00:44:56.273Z,22.49
2022-10-22T00:47:24.283Z,22.49
2022-10-22T00:49:53.345Z,22.47
2022-10-22T00:52:20.108Z,22.47
2022-10-22T00:54:46.723Z,22.45
2022-10-22T00:57:13.281Z,22.45
2022-10-22T00:59:39.760Z,22.45
2022-10-22T01:02:06.144Z,22.45
2022-10-22T01:04:32.562Z,22.45
2022-10-22T01:06:58.995Z,22.42
2022-10-22T01:09:40.665Z,22.42
2022-10-22T01:12:21.927Z,22.44
2022-10-22T01:14:51.142Z,22.40
2022-10-22T01:17:27.536Z,22.41
2022-10-22T01:20:24.975Z,22.40
2022-10-22T01:23:14.096Z,22.40
2022-10-22T01:26:18.244Z,22.37
2022-10-22T01:28:54.172Z,22.37
2022-10-22T01:31:23.647Z,22.34
2022-10-22T01:33:53.232Z,22.35
2022-10-22T01:36:20.527Z,22.33
2022-10-22T01:38:49.558Z,22.35
2022-10-22T01:41:16.047Z,22.33
2022-10-22T01:43:42.430Z,22.35
2022-10-22T01:46:10.743Z,22.32
2022-10-22T01:48:58.546Z,22.32
2022-10-22T01:51:40.340Z,22.31
2022-10-22T01:54:25.083Z,22.29
2022-10-22T01:57:16.392Z,22.30
2022-10-22T01:59:48.721Z,22.29
2022-10-22T02:02:49.745Z,22.27
2022-10-22T02:05:24.448Z,22.27
2022-10-22T02:08:06.152Z,22.26
2022-10-22T02:10:32.695Z,22.25
2022-10-22T02:13:01.289Z,22.24
2022-10-22T02:15:32.940Z,22.24
2022-10-22T02:18:00.876Z,22.25
2022-10-22T02:20:33.542Z,22.24
2022-10-22T02:23:01.014Z,22.23
2022-10-22T02:25:30.915Z,22.24
2022-10-22T02:28:22.173Z,22.24
2022-10-22T02:30:54.866Z,22.24
2022-10-22T02:33:25.358Z,22.22
2022-10-22T02:35:52.994Z,22.22
2022-10-22T02:38:20.053Z,22.22
2022-10-22T02:40:46.872Z,22.21
2022-10-22T02:43:13.305Z,22.21
2022-10-22T02:45:39.872Z,22.19
2022-10-22T02:48:06.630Z,22.19
2022-10-22T02:50:33.067Z,22.20
2022-10-22T02:52:59.449Z,22.19
2022-10-22T02:55:25.875Z,22.17
2022-10-22T02:57:52.367Z,22.19
2022-10-22T03:00:19.196Z,22.18
2022-10-22T03:02:45.671Z,22.19
2022-10-22T03:05:12.062Z,22.18
2022-10-22T03:07:39.174Z,22.17
2022-10-22T03:10:06.363Z,22.16
2022-10-22T03:12:32.799Z,22.16
2022-10-22T03:14:59.221Z,22.15
2022-10-22T03:17:25.725Z,22.16
2022-10-22T03:19:52.190Z,22.15
2022-10-22T03:22:28.251Z,22.15
2022-10-22T03:24:58.567Z,22.14
2022-10-22T03:27:28.331Z,22.13
2022-10-22T03:29:55.624Z,22.16
2022-10-22T03:32:22.014Z,22.13
2022-10-22T03:34:48.486Z,22.13
2022-10-22T03:37:15.043Z,22.11
2022-10-22T03:39:41.832Z,22.11
2022-10-22T03:42:08.837Z,22.12
2022-10-22T03:44:37.828Z,22.12
2022-10-22T03:47:04.704Z,22.13
2022-10-22T03:49:31.198Z,22.13
2022-10-22T03:51:58.309Z,22.10
2022-10-22T03:54:24.799Z,22.10
2022-10-22T03:56:51.358Z,22.10
2022-10-22T03:59:17.861Z,22.10
2022-10-22T04:01:44.307Z,22.10
2022-10-22T04:04:10.746Z,22.08
2022-10-22T04:06:37.161Z,22.09
2022-10-22T04:09:03.776Z,22.08
2022-10-22T04:11:30.426Z,22.09
2022-10-22T04:13:56.969Z,22.07
2022-10-22T04:16:26.200Z,22.07
2022-10-22T04:18:55.131Z,22.06
2022-10-22T04:21:22.642Z,22.06
2022-10-22T04:23:51.446Z,22.07
2022-10-22T04:26:19.185Z,22.04
2022-10-22T04:28:46.934Z,22.05
2022-10-22T04:31:15.514Z,22.05
2022-10-22T04:33:42.756Z,22.05
2022-10-22T04:36:15.837Z,22.04
2022-10-22T04:38:44.114Z,22.04
2022-10-22T04:41:28.496Z,22.02
2022-10-22T04:43:56.359Z,22.03
2022-10-22T04:46:23.834Z,22.03
2022-10-22T04:48:51.364Z,22.02
2022-10-22T04:51:20.221Z,22.03
2022-10-22T04:53:47.358Z,22.01
2022-10-22T04:56:22.626Z,22.03
2022-10-22T04:58:51.532Z,22.00
2022-10-22T05:01:21.391Z,22.02
2022-10-22T05:03:49.306Z,22.02
2022-10-22T05:06:16.783Z,22.00
2022-10-22T05:08:43.627Z,21.99
2022-10-22T05:11:18.946Z,21.99
2022-10-22T05:13:45.997Z,21.99
2022-10-22T05:16:13.665Z,21.99
2022-10-22T05:18:43.072Z,21.99
2022-10-22T05:23:37.306Z,21.98
2022-10-22T05:26:06.037Z,21.97
2022-10-22T05:28:33.810Z,21.99
2022-10-22T05:31:01.486Z,22.00
2022-10-22T05:33:29.884Z,21.96
2022-10-22T05:35:57.570Z,21.96
2022-10-22T05:38:24.441Z,21.95
2022-10-22T05:43:31.046Z,21.96
2022-10-22T05:46:02.908Z,21.94
2022-10-22T05:48:29.667Z,21.94
2022-10-22T05:50:56.241Z,21.92
2022-10-22T05:53:23.961Z,21.91
2022-10-22T05:55:50.445Z,21.91
2022-10-22T05:58:16.917Z,21.92
2022-10-22T06:00:43.348Z,21.91
2022-10-22T06:03:09.785Z,21.90
2022-10-22T06:05:37.372Z,21.90
2022-10-22T06:08:04.404Z,21.89
2022-10-22T06:10:31.224Z,21.90
2022-10-22T06:12:57.676Z,21.91
2022-10-22T06:15:24.107Z,21.90
2022-10-22T06:17:50.561Z,21.88
2022-10-22T06:20:17.519Z,21.87
2022-10-22T06:22:44.193Z,21.89
2022-10-22T06:25:10.985Z,21.90
2022-10-22T06:27:37.385Z,21.89
2022-10-22T06:30:04.203Z,21.88
2022-10-22T06:32:30.729Z,21.89
2022-10-22T06:34:57.208Z,21.85
2022-10-22T06:37:23.652Z,21.85
2022-10-22T06:39:50.066Z,21.85
2022-10-22T06:42:16.462Z,21.86
2022-10-22T06:44:42.898Z,21.87
2022-10-22T06:47:09.289Z,21.85
2022-10-22T06:49:35.700Z,21.83
2022-10-22T06:52:02.160Z,21.85
2022-10-22T06:54:28.662Z,21.88
2022-10-22T06:56:55.119Z,21.90
2022-10-22T06:59:21.629Z,21.92
2022-10-22T07:01:48.144Z,21.93
2022-10-22T07:04:14.736Z,21.97
2022-10-22T07:06:41.217Z,21.96
2022-10-22T07:09:07.756Z,22.00
2022-10-22T07:11:43.149Z,22.02
2022-10-22T07:14:10.438Z,22.02
2022-10-22T07:16:37.820Z,22.07
2022-10-22T07:19:05.448Z,22.08
2022-10-22T07:21:32.110Z,22.10
2022-10-22T07:23:59.201Z,22.11
2022-10-22T07:26:28.182Z,22.13
2022-10-22T07:28:54.600Z,22.16
2022-10-22T07:31:21.014Z,22.17
2022-10-22T07:33:47.443Z,22.18
2022-10-22T07:36:17.936Z,22.20
2022-10-22T07:38:46.646Z,22.21
2022-10-22T07:41:14.643Z,22.22
2022-10-22T07:43:41.321Z,22.23
2022-10-22T07:46:08.873Z,22.24
2022-10-22T07:48:36.154Z,22.25
2022-10-22T07:51:02.867Z,22.26
2022-10-22T07:53:29.426Z,22.27
2022-10-22T07:55:56.788Z,22.29
2022-10-22T07:58:23.835Z,22.30
2022-10-22T08:00:51.231Z,22.32
2022-10-22T08:03:18.475Z,22.33
2022-10-22T08:05:46.009Z,22.33
2022-10-22T08:08:14.095Z,22.34
2022-10-22T08:10:40.794Z,22.37
2022-10-22T08:13:07.748Z,22.37
2022-10-22T08:15:34.872Z,22.37
2022-10-22T08:18:01.469Z,22.40
2022-10-22T08:20:28.007Z,22.42
2022-10-22T08:22:54.593Z,22.47
2022-10-22T08:25:21.328Z,22.49
2022-10-22T08:27:47.935Z,22.53
2022-10-22T08:30:14.858Z,22.54
2022-10-22T08:32:41.845Z,22.58
2022-10-22T08:35:08.424Z,22.62
2022-10-22T08:37:35.453Z,22.68
2022-10-22T08:40:02.276Z,22.75
2022-10-22T08:43:02.151Z,22.79
2022-10-22T08:45:41.549Z,22.84
2022-10-22T08:48:43.464Z,22.89
2022-10-22T08:51:19.919Z,22.93
2022-10-22T08:53:58.233Z,22.97
2022-10-22T08:56:24.752Z,22.99
2022-10-22T08:59:04.410Z,23.02
2022-10-22T09:01:38.315Z,23.07
2022-10-22T09:04:36.480Z,23.10
2022-10-22T09:07:02.941Z,23.16
2022-10-22T09:09:39.658Z,23.16
2022-10-22T09:12:07.345Z,23.21
2022-10-22T09:14:34.002Z,23.24
2022-10-22T09:17:38.720Z,23.28
2022-10-22T09:20:36.700Z,23.32
2022-10-22T09:23:25.792Z,23.34
2022-10-22T09:25:52.707Z,23.35
2022-10-22T09:28:19.568Z,23.39
2022-10-22T09:30:46.195Z,23.41
2022-10-22T09:33:14.513Z,23.42
2022-10-22T09:35:47.005Z,23.44
2022-10-22T09:38:18.777Z,23.45
2022-10-22T09:40:51.025Z,23.43
2022-10-22T09:43:17.583Z,23.47
2022-10-22T09:45:45.231Z,23.46
2022-10-22T09:48:14.680Z,23.48
2022-10-22T09:50:44.328Z,23.46
2022-10-22T09:53:25.244Z,23.48
2022-10-22T09:58:28.086Z,23.48
2022-10-22T10:01:00.106Z,23.48
2022-10-22T10:03:30.843Z,23.47
2022-10-22T10:06:03.068Z,23.46
2022-10-22T10:08:32.568Z,23.47
2022-10-22T10:11:05.821Z,23.47
2022-10-22T10:13:38.770Z,23.47
2022-10-22T10:16:11.088Z,23.48
2022-10-22T10:18:58.939Z,23.45
2022-10-22T10:21:40.584Z,23.48
2022-10-22T10:24:39.390Z,23.47
2022-10-22T10:27:13.584Z,23.49
2022-10-22T10:29:54.017Z,23.47
2022-10-22T10:32:54.604Z,23.47
2022-10-22T10:35:26.424Z,23.46
2022-10-22T10:38:29.536Z,23.46
2022-10-22T10:41:08.178Z,23.46
2022-10-22T10:43:53.609Z,23.46
2022-10-22T10:46:52.437Z,23.47
2022-10-22T10:49:23.045Z,23.49
2022-10-22T10:52:06.580Z,23.48
2022-10-22T10:54:57.501Z,23.47
2022-10-22T10:57:48.506Z,23.50
2022-10-22T11:00:22.472Z,23.54
2022-10-22T11:03:31.851Z,23.57
2022-10-22T11:06:01.689Z,23.59
2022-10-22T11:08:45.439Z,23.61
2022-10-22T11:11:31.503Z,23.64
2022-10-22T11:14:03.329Z,23.67
2022-10-22T11:16:32.782Z,23.69
2022-10-22T11:19:11.310Z,23.71
2022-10-22T11:21:53.231Z,23.72
2022-10-22T11:24:28.473Z,23.76
2022-10-22T11:27:01.092Z,23.79
2022-10-22T11:29:33.738Z,23.80
2022-10-22T11:32:02.860Z,23.81
2022-10-22T11:34:50.767Z,23.82
2022-10-22T11:37:18.227Z,23.83
2022-10-22T11:39:53.787Z,23.83
2022-10-22T11:42:21.760Z,23.82
2022-10-22T11:44:59.914Z,23.80
2022-10-22T11:47:31.756Z,23.80
2022-10-22T11:50:21.766Z,23.76
2022-10-22T11:53:16.185Z,23.77
2022-10-22T11:55:51.787Z,23.76
2022-10-22T11:58:43.782Z,23.72
2022-10-22T12:01:10.206Z,23.71
2022-10-22T12:03:44.713Z,23.68
2022-10-22T12:06:12.036Z,23.67
2022-10-22T12:08:54.431Z,23.66
2022-10-22T12:11:22.473Z,23.65
2022-10-22T12:13:58.662Z,23.64
2022-10-22T12:16:37.920Z,23.63
2022-10-22T12:19:30.942Z,23.60
2022-10-22T12:22:08.067Z,23.60
2022-10-22T12:24:38.193Z,23.58
2022-10-22T12:27:04.748Z,23.57
2022-10-22T12:29:32.996Z,23.55
2022-10-22T12:32:04.596Z,23.54
2022-10-22T12:34:31.044Z,23.51
2022-10-22T12:36:57.434Z,23.51
2022-10-22T12:39:27.804Z,23.51
2022-10-22T12:41:54.975Z,23.50
2022-10-22T12:44:21.454Z,23.50
2022-10-22T12:46:52.956Z,23.51
2022-10-22T12:49:26.029Z,23.52
2022-10-22T12:51:52.533Z,23.52
2022-10-22T12:54:27.716Z,23.49
2022-10-22T12:56:56.182Z,23.49
2022-10-22T12:59:26.687Z,23.47
2022-10-22T13:01:53.945Z,23.44
2022-10-22T13:04:31.242Z,23.41
2022-10-22T13:07:12.642Z,23.41
2022-10-22T13:09:41.513Z,23.41
2022-10-22T13:12:14.779Z,23.38
2022-10-22T13:14:41.216Z,23.38
2022-10-22T13:17:16.860Z,23.38
2022-10-22T13:19:52.501Z,23.39
2022-10-22T13:22:33.235Z,23.39
2022-10-22T13:25:11.823Z,23.41
2022-10-22T13:27:44.453Z,23.43
2022-10-22T13:30:21.979Z,23.43
2022-10-22T13:33:29.719Z,23.44
2022-10-22T13:35:57.021Z,23.45
2022-10-22T13:38:25.535Z,23.45
2022-10-22T13:40:52.074Z,23.44
2022-10-22T13:43:18.944Z,23.46
2022-10-22T13:45:47.875Z,23.45
2022-10-22T13:48:18.253Z,23.43
2022-10-22T13:50:44.986Z,23.45
2022-10-22T13:53:23.360Z,23.44
2022-10-22T13:55:50.360Z,23.48
2022-10-22T13:58:19.459Z,23.48
2022-10-22T14:00:49.067Z,23.48
2022-10-22T14:03:18.790Z,23.49
2022-10-22T14:05:49.028Z,23.47
2022-10-22T14:08:18.831Z,23.46
2022-10-22T14:10:46.078Z,23.47
2022-10-22T14:13:13.953Z,23.49
2022-10-22T14:15:41.398Z,23.51
2022-10-22T14:18:12.852Z,23.51
2022-10-22T14:20:42.304Z,23.52
2022-10-22T14:23:23.945Z,23.53
2022-10-22T14:25:53.511Z,23.53
2022-10-22T14:28:20.244Z,23.54
2022-10-22T14:30:46.892Z,23.54
2022-10-22T14:33:19.569Z,23.54
2022-10-22T14:35:47.417Z,23.54
2022-10-22T14:38:14.026Z,23.53
2022-10-22T14:40:42.987Z,23.52
2022-10-22T14:43:35.743Z,23.53
2022-10-22T14:46:02.130Z,23.54
2022-10-22T14:48:28.551Z,23.54
2022-10-22T14:50:55.097Z,23.52
2022-10-22T14:53:21.571Z,23.52
2022-10-22T14:55:49.101Z,23.52
2022-10-22T14:58:15.620Z,23.51
2022-10-22T15:00:43.483Z,23.52
2022-10-22T15:03:10.572Z,23.53
2022-10-22T15:05:44.278Z,23.54
2022-10-22T15:08:12.660Z,23.53
2022-10-22T15:10:39.219Z,23.55
2022-10-22T15:13:05.683Z,23.54
2022-10-22T15:15:36.614Z,23.52
2022-10-22T15:18:05.745Z,23.54
2022-10-22T15:20:32.187Z,23.53
2022-10-22T15:22:58.598Z,23.54
2022-10-22T15:25:25.040Z,23.53
2022-10-22T15:27:52.563Z,23.55
2022-10-22T15:30:21.386Z,23.56
2022-10-22T15:32:47.936Z,23.56
2022-10-22T15:35:14.374Z,23.59
2022-10-22T15:37:40.881Z,23.57
2022-10-22T15:40:08.641Z,23.58
2022-10-22T15:42:35.147Z,23.59
2022-10-22T15:45:02.206Z,23.59
2022-10-22T15:47:29.958Z,23.59
2022-10-22T15:49:56.413Z,23.60
2022-10-22T15:52:22.849Z,23.61
2022-10-22T15:54:49.658Z,23.63
2022-10-22T15:57:16.171Z,23.60
2022-10-22T15:59:42.781Z,23.59
2022-10-22T16:02:11.211Z,23.60
2022-10-22T16:04:38.757Z,23.61
2022-10-22T16:07:05.218Z,23.62
2022-10-22T16:09:31.684Z,23.62
2022-10-22T16:11:58.123Z,23.62
2022-10-22T16:14:24.670Z,23.63
2022-10-22T16:16:53.390Z,23.63
2022-10-22T16:19:21.581Z,23.63
2022-10-22T16:21:53.884Z,23.62
2022-10-22T16:24:21.218Z,23.60
2022-10-22T16:26:48.780Z,23.55
2022-10-22T16:29:15.821Z,23.54
2022-10-22T16:31:43.624Z,23.52
2022-10-22T16:34:10.518Z,23.53
2022-10-22T16:36:38.205Z,23.47
2022-10-22T16:39:05.656Z,23.44
2022-10-22T16:41:35.449Z,23.43
2022-10-22T16:44:06.032Z,23.41
2022-10-22T16:46:33.402Z,23.38
2022-10-22T16:49:00.282Z,23.36
2022-10-22T16:51:27.889Z,23.34
2022-10-22T16:53:57.050Z,23.32
2022-10-22T16:56:24.858Z,23.29
2022-10-22T16:58:53.763Z,23.30
2022-10-22T17:01:22.942Z,23.27
2022-10-22T17:03:49.583Z,23.24
2022-10-22T17:06:16.089Z,23.24
2022-10-22T17:08:42.784Z,23.22
2022-10-22T17:11:18.239Z,23.20
2022-10-22T17:13:47.008Z,23.19
2022-10-22T17:16:15.510Z,23.15
2022-10-22T17:18:43.178Z,23.15
2022-10-22T17:21:11.137Z,23.14
2022-10-22T17:23:38.140Z,23.12
2022-10-22T17:26:07.596Z,23.11
2022-10-22T17:28:39.067Z,23.09
2022-10-22T17:31:23.118Z,23.09
2022-10-22T17:33:51.195Z,23.08
2022-10-22T17:36:19.427Z,23.08
2022-10-22T17:38:49.205Z,23.06
2022-10-22T17:41:28.410Z,23.07
2022-10-22T17:43:56.373Z,23.05
2022-10-22T17:46:25.594Z,23.06
2022-10-22T17:48:54.439Z,23.03
2022-10-22T17:51:22.073Z,23.05
2022-10-22T17:53:50.702Z,23.02
2022-10-22T17:56:19.891Z,23.01
2022-10-22T17:58:46.394Z,23.00
2022-10-22T18:01:37.627Z,22.99
2022-10-22T18:04:06.671Z,23.03
2022-10-22T18:06:33.441Z,22.99
2022-10-22T18:09:03.828Z,22.99
2022-10-22T18:11:32.490Z,23.00
2022-10-22T18:13:59.222Z,22.97
2022-10-22T18:16:26.329Z,22.95
2022-10-22T18:18:55.052Z,22.94
2022-10-22T18:21:23.281Z,22.95
2022-10-22T18:23:49.739Z,22.93
2022-10-22T18:26:19.324Z,22.94
2022-10-22T18:28:50.569Z,22.95
2022-10-22T18:31:20.334Z,22.93
2022-10-22T18:33:47.467Z,22.92
2022-10-22T18:36:19.572Z,22.92
2022-10-22T18:38:53.757Z,22.92
2022-10-22T18:41:21.097Z,22.91
2022-10-22T18:43:52.799Z,22.90
2022-10-22T18:46:19.897Z,22.89
2022-10-22T18:48:47.105Z,22.87
2022-10-22T18:51:15.007Z,22.89
2022-10-22T18:53:44.187Z,22.86
2022-10-22T18:56:13.304Z,22.87
2022-10-22T18:58:41.219Z,22.86
2022-10-22T19:01:13.161Z,22.84
2022-10-22T19:03:39.854Z,22.83
2022-10-22T19:06:06.774Z,22.84
2022-10-22T19:08:37.079Z,22.83
2022-10-22T19:11:09.908Z,22.83
2022-10-22T19:13:39.306Z,22.83
2022-10-22T19:16:11.735Z,22.83
2022-10-22T19:18:38.619Z,22.81
2022-10-22T19:21:05.491Z,22.81
2022-10-22T19:23:32.026Z,22.80
2022-10-22T19:26:11.839Z,22.80
2022-10-22T19:28:39.586Z,22.77
2022-10-22T19:31:11.966Z,22.78
2022-10-22T19:33:39.269Z,22.77
2022-10-22T19:36:07.059Z,22.76
2022-10-22T19:38:34.357Z,22.75
2022-10-22T19:41:00.782Z,22.78
2022-10-22T19:43:29.169Z,22.77
2022-10-22T19:45:56.170Z,22.76
2022-10-22T19:48:22.754Z,22.74
2022-10-22T19:50:49.291Z,22.75
2022-10-22T19:53:15.727Z,22.75
2022-10-22T19:55:44.281Z,22.74
2022-10-22T19:58:11.683Z,22.73
2022-10-22T20:00:38.577Z,22.75
2022-10-22T20:03:05.529Z,22.72
2022-10-22T20:05:32.000Z,22.73
2022-10-22T20:07:58.981Z,22.71
2022-10-22T20:10:25.452Z,22.73
2022-10-22T20:12:52.661Z,22.73
2022-10-22T20:15:21.443Z,22.69
2022-10-22T20:17:47.992Z,22.71
2022-10-22T20:20:14.605Z,22.69
2022-10-22T20:22:43.146Z,22.67
2022-10-22T20:25:11.762Z,22.67
2022-10-22T20:27:38.737Z,22.69
2022-10-22T20:30:06.220Z,22.68
2022-10-22T20:32:36.027Z,22.69
2022-10-22T20:35:02.525Z,22.69
2022-10-22T20:37:28.978Z,22.67
2022-10-22T20:39:55.396Z,22.68
2022-10-22T20:42:21.824Z,22.68
2022-10-22T20:44:48.234Z,22.66
2022-10-22T20:47:17.971Z,22.66
2022-10-22T20:49:44.459Z,22.65
2022-10-22T20:52:10.981Z,22.65
2022-10-22T20:54:41.417Z,22.63
2022-10-22T20:57:08.489Z,22.64
2022-10-22T20:59:35.192Z,22.63
2022-10-22T21:02:02.511Z,22.63
2022-10-22T21:04:29.583Z,22.62
2022-10-22T21:06:57.286Z,22.62
2022-10-22T21:09:24.771Z,22.63
2022-10-22T21:14:25.749Z,22.62
2022-10-22T21:16:52.888Z,22.61
2022-10-22T21:19:22.523Z,22.59
2022-10-22T21:21:49.315Z,22.61
2022-10-22T21:24:16.011Z,22.61
2022-10-22T21:26:43.116Z,22.57
2022-10-22T21:29:12.133Z,22.57
2022-10-22T21:31:40.338Z,22.57
2022-10-22T21:34:07.387Z,22.59
2022-10-22T21:36:33.961Z,22.57
2022-10-22T21:39:02.018Z,22.57
2022-10-22T21:41:28.513Z,22.55
2022-10-22T21:43:54.944Z,22.56
2022-10-22T21:46:24.698Z,22.56
2022-10-22T21:48:55.226Z,22.56
2022-10-22T21:51:23.671Z,22.55
2022-10-22T21:56:32.454Z,22.55
2022-10-22T21:58:59.273Z,22.55
2022-10-22T22:01:25.995Z,22.53
2022-10-22T22:03:52.990Z,22.52
2022-10-22T22:06:22.558Z,22.53
2022-10-22T22:08:51.569Z,22.52
2022-10-22T22:11:22.081Z,22.52
2022-10-22T22:13:48.878Z,22.52
2022-10-22T22:16:20.315Z,22.52
2022-10-22T22:18:49.268Z,22.52
2022-10-22T22:21:19.041Z,22.51
2022-10-22T22:23:48.511Z,22.51
2022-10-22T22:26:16.962Z,22.53
2022-10-22T22:28:43.362Z,22.52
2022-10-22T22:31:15.469Z,22.51
2022-10-22T22:33:42.047Z,22.52
2022-10-22T22:36:09.095Z,22.51
2022-10-22T22:38:35.577Z,22.50
2022-10-22T22:41:02.028Z,22.51
2022-10-22T22:43:28.637Z,22.49
2022-10-22T22:45:59.735Z,22.49
2022-10-22T22:48:26.243Z,22.48
2022-10-22T22:50:52.716Z,22.50
2022-10-22T22:53:19.142Z,22.48
2022-10-22T22:55:45.596Z,22.48
2022-10-22T22:58:12.169Z,22.47
2022-10-22T23:00:38.567Z,22.45
2022-10-22T23:03:05.067Z,22.45
2022-10-22T23:05:31.459Z,22.47
2022-10-22T23:07:57.918Z,22.45
2022-10-22T23:10:24.446Z,22.48
2022-10-22T23:12:50.911Z,22.47
2022-10-22T23:15:17.393Z,22.46
2022-10-22T23:17:43.819Z,22.47
2022-10-22T23:20:10.697Z,22.47
2022-10-22T23:22:37.196Z,22.45
2022-10-22T23:25:03.859Z,22.44
2022-10-22T23:27:30.353Z,22.43
2022-10-22T23:29:56.832Z,22.43
2022-10-22T23:32:23.297Z,22.43
2022-10-22T23:34:49.809Z,22.42
2022-10-22T23:37:16.245Z,22.42
2022-10-22T23:39:42.688Z,22.41
2022-10-22T23:42:09.196Z,22.41
2022-10-22T23:44:35.682Z,22.41
2022-10-22T23:47:02.077Z,22.41
2022-10-22T23:49:40.785Z,22.41
2022-10-22T23:52:07.261Z,22.37
2022-10-22T23:54:33.729Z,22.41
2022-10-22T23:57:00.167Z,22.41
2022-10-22T23:59:26.579Z,22.40
